createdAt,value
2023-03-28T00:01:01.969Z,10.98
2023-03-28T00:03:29.833Z,11.07
2023-03-28T00:06:01.157Z,10.45
2023-03-28T00:08:29.345Z,9.68
2023-03-28T00:11:04.780Z,10.32
2023-03-28T00:14:00.986Z,10.77
2023-03-28T00:16:33.256Z,10.65
2023-03-28T00:19:05.925Z,10.32
2023-03-28T00:21:38.949Z,10.43
2023-03-28T00:24:11.028Z,9.77
2023-03-28T00:26:38.089Z,9.30
2023-03-28T00:29:06.235Z,8.52
2023-03-28T00:31:35.133Z,9.23
2023-03-28T00:34:02.277Z,8.70
2023-03-28T00:36:29.786Z,9.18
2023-03-28T00:38:58.011Z,8.15
2023-03-28T00:41:26.799Z,7.75
2023-03-28T00:43:54.984Z,6.78
2023-03-28T00:46:24.911Z,6.63
2023-03-28T00:48:54.108Z,7.30
2023-03-28T00:51:25.096Z,5.72
2023-03-28T00:53:53.904Z,6.22
2023-03-28T00:56:23.486Z,5.68
2023-03-28T00:58:51.774Z,5.68
2023-03-28T01:01:20.156Z,5.63
2023-03-28T01:03:52.499Z,5.55
2023-03-28T01:06:21.620Z,5.07
2023-03-28T01:08:49.333Z,5.65
2023-03-28T01:11:16.669Z,5.25
2023-03-28T01:13:49.727Z,4.65
2023-03-28T01:16:18.958Z,4.35
2023-03-28T01:18:51.691Z,4.40
2023-03-28T01:21:48.900Z,3.92
2023-03-28T01:24:42.243Z,4.03
2023-03-28T01:27:11.510Z,3.95
2023-03-28T01:29:38.407Z,4.70
2023-03-28T01:32:24.000Z,3.60
2023-03-28T01:35:07.116Z,3.17
2023-03-28T01:38:00.371Z,2.60
2023-03-28T01:40:42.329Z,2.47
2023-03-28T01:43:09.144Z,2.13
2023-03-28T01:45:38.887Z,1.90
2023-03-28T01:48:20.317Z,2.00
2023-03-28T01:50:52.264Z,1.57
2023-03-28T01:53:28.635Z,1.52
2023-03-28T01:56:24.596Z,1.38
2023-03-28T01:59:16.114Z,2.28
2023-03-28T02:02:28.510Z,2.17
2023-03-28T02:04:57.068Z,2.30
2023-03-28T02:07:25.012Z,2.85
2023-03-28T02:09:53.363Z,2.92
2023-03-28T02:12:27.058Z,2.55
2023-03-28T02:14:54.550Z,2.50
2023-03-28T02:17:23.350Z,2.92
2023-03-28T02:19:58.696Z,2.40
2023-03-28T02:22:35.639Z,2.70
2023-03-28T02:25:02.663Z,2.20
2023-03-28T02:27:29.726Z,2.45
2023-03-28T02:29:56.698Z,2.28
2023-03-28T02:32:27.448Z,1.73
2023-03-28T02:34:55.312Z,1.48
2023-03-28T02:37:54.942Z,1.10
2023-03-28T02:40:59.441Z,1.05
2023-03-28T02:44:21.130Z,1.08
2023-03-28T02:47:06.686Z,1.00
2023-03-28T02:49:58.449Z,0.95
2023-03-28T02:52:40.247Z,0.88
2023-03-28T02:55:33.504Z,1.00
2023-03-28T02:58:21.735Z,1.45
2023-03-28T03:00:49.136Z,1.30
2023-03-28T03:03:17.119Z,1.00
2023-03-28T03:05:44.015Z,1.00
2023-03-28T03:08:11.760Z,1.17
2023-03-28T03:10:41.057Z,0.90
2023-03-28T03:13:08.080Z,0.95
2023-03-28T03:15:35.639Z,0.80
2023-03-28T03:18:03.210Z,0.80
2023-03-28T03:20:33.597Z,1.08
2023-03-28T03:23:01.410Z,1.42
2023-03-28T03:25:31.441Z,1.30
2023-03-28T03:27:58.391Z,1.20
2023-03-28T03:30:25.366Z,1.15
2023-03-28T03:32:52.339Z,1.27
2023-03-28T03:35:20.332Z,1.70
2023-03-28T03:37:47.415Z,1.70
2023-03-28T03:40:14.876Z,1.40
2023-03-28T03:42:41.808Z,1.42
2023-03-28T03:45:09.900Z,1.05
2023-03-28T03:47:36.882Z,1.10
2023-03-28T03:50:08.150Z,1.20
2023-03-28T03:52:37.864Z,1.30
2023-03-28T03:55:05.032Z,1.38
2023-03-28T03:57:32.089Z,1.20
2023-03-28T03:59:59.995Z,1.20
2023-03-28T04:02:27.359Z,0.98
2023-03-28T04:05:21.748Z,0.95
2023-03-28T04:07:48.861Z,1.23
2023-03-28T04:10:15.663Z,0.82
2023-03-28T04:12:42.828Z,1.33
2023-03-28T04:15:10.246Z,1.42
2023-03-28T04:17:37.964Z,0.90
2023-03-28T04:20:11.569Z,1.05
2023-03-28T04:22:45.425Z,1.42
2023-03-28T04:25:14.233Z,1.25
2023-03-28T04:27:48.927Z,1.20
2023-03-28T04:30:18.017Z,1.20
2023-03-28T04:32:45.219Z,1.20
2023-03-28T04:35:12.438Z,1.00
2023-03-28T04:37:39.730Z,1.40
2023-03-28T04:40:16.180Z,1.20
2023-03-28T04:42:43.133Z,1.08
2023-03-28T04:45:10.772Z,1.23
2023-03-28T04:47:39.964Z,1.30
2023-03-28T04:50:10.568Z,1.30
2023-03-28T04:52:37.589Z,1.23
2023-03-28T04:55:05.418Z,1.38
2023-03-28T04:57:32.381Z,1.10
2023-03-28T05:00:01.755Z,1.15
2023-03-28T05:02:28.732Z,1.10
2023-03-28T05:04:55.552Z,0.90
2023-03-28T05:07:22.434Z,1.10
2023-03-28T05:09:51.099Z,0.95
2023-03-28T05:12:17.908Z,1.10
2023-03-28T05:14:44.895Z,1.20
2023-03-28T05:17:11.915Z,1.20
2023-03-28T05:19:38.790Z,1.00
2023-03-28T05:22:06.000Z,0.95
2023-03-28T05:24:33.719Z,1.00
2023-03-28T05:27:01.942Z,1.10
2023-03-28T05:29:28.793Z,1.30
2023-03-28T05:31:55.945Z,1.20
2023-03-28T05:34:22.769Z,1.38
2023-03-28T05:36:49.771Z,1.40
2023-03-28T05:39:16.760Z,1.38
2023-03-28T05:41:43.677Z,1.70
2023-03-28T05:44:10.700Z,1.00
2023-03-28T05:46:37.579Z,1.10
2023-03-28T05:49:04.462Z,0.98
2023-03-28T05:51:31.480Z,1.13
2023-03-28T05:53:58.335Z,1.17
2023-03-28T05:56:25.525Z,1.40
2023-03-28T05:58:52.388Z,1.98
2023-03-28T06:01:23.430Z,1.70
2023-03-28T06:03:50.680Z,1.30
2023-03-28T06:06:18.072Z,1.80
2023-03-28T06:08:44.938Z,1.30
2023-03-28T06:11:12.067Z,1.40
2023-03-28T06:13:39.041Z,1.70
2023-03-28T06:16:06.355Z,1.27
2023-03-28T06:18:33.358Z,1.30
2023-03-28T06:21:00.417Z,1.40
2023-03-28T06:23:27.420Z,1.23
2023-03-28T06:25:54.246Z,1.15
2023-03-28T06:28:21.301Z,1.13
2023-03-28T06:30:49.598Z,1.10
2023-03-28T06:33:16.518Z,1.45
2023-03-28T06:35:43.382Z,1.85
2023-03-28T06:38:14.703Z,1.05
2023-03-28T06:40:41.641Z,1.20
2023-03-28T06:43:08.527Z,1.13
2023-03-28T06:45:35.463Z,1.30
2023-03-28T06:48:02.375Z,1.27
2023-03-28T06:50:29.275Z,1.38
2023-03-28T06:52:56.175Z,1.35
2023-03-28T06:55:23.034Z,1.38
2023-03-28T06:57:49.874Z,1.30
2023-03-28T07:00:17.814Z,1.17
2023-03-28T07:02:44.815Z,1.02
2023-03-28T07:05:11.771Z,1.25
2023-03-28T07:07:38.602Z,1.33
2023-03-28T07:10:06.199Z,1.35
2023-03-28T07:12:33.131Z,1.40
2023-03-28T07:14:59.937Z,1.55
2023-03-28T07:17:26.851Z,1.42
2023-03-28T07:19:54.446Z,1.55
2023-03-28T07:22:21.491Z,1.52
2023-03-28T07:24:48.341Z,1.25
2023-03-28T07:27:16.679Z,1.23
2023-03-28T07:29:44.073Z,1.13
2023-03-28T07:32:11.475Z,1.30
2023-03-28T07:34:38.416Z,1.30
2023-03-28T07:37:05.470Z,1.38
2023-03-28T07:39:32.780Z,1.10
2023-03-28T07:41:59.647Z,1.00
2023-03-28T07:44:26.914Z,1.10
2023-03-28T07:46:54.779Z,1.30
2023-03-28T07:49:21.656Z,1.58
2023-03-28T07:51:48.424Z,1.27
2023-03-28T07:54:17.952Z,1.20
2023-03-28T07:56:46.122Z,1.13
2023-03-28T07:59:13.802Z,1.35
2023-03-28T08:01:42.137Z,1.40
2023-03-28T08:04:10.127Z,1.00
2023-03-28T08:06:40.395Z,1.50
2023-03-28T08:09:08.398Z,1.60
2023-03-28T08:11:35.899Z,1.20
2023-03-28T08:14:04.376Z,1.48
2023-03-28T08:16:31.971Z,1.10
2023-03-28T08:19:10.156Z,1.10
2023-03-28T08:21:38.520Z,1.30
2023-03-28T08:24:07.795Z,1.58
2023-03-28T08:26:35.012Z,1.33
2023-03-28T08:29:02.402Z,1.23
2023-03-28T08:31:29.681Z,1.50
2023-03-28T08:33:57.516Z,1.38
2023-03-28T08:36:27.266Z,2.13
2023-03-28T08:39:00.261Z,1.20
2023-03-28T08:41:30.062Z,1.23
2023-03-28T08:44:06.635Z,1.30
2023-03-28T08:46:35.746Z,1.00
2023-03-28T08:49:06.527Z,1.10
2023-03-28T08:51:37.083Z,1.42
2023-03-28T08:54:22.062Z,1.60
2023-03-28T08:56:52.628Z,0.70
2023-03-28T08:59:40.215Z,0.73
2023-03-28T09:02:22.132Z,1.13
2023-03-28T09:04:49.609Z,0.80
2023-03-28T09:08:00.857Z,1.20
2023-03-28T09:10:29.363Z,0.93
2023-03-28T09:13:06.790Z,1.23
2023-03-28T09:15:52.123Z,1.40
2023-03-28T09:18:28.804Z,0.75
2023-03-28T09:21:37.904Z,0.90
2023-03-28T09:24:13.853Z,0.88
2023-03-28T09:27:03.763Z,1.50
2023-03-28T09:29:32.969Z,1.35
2023-03-28T09:32:04.173Z,1.45
2023-03-28T09:34:34.837Z,0.90
2023-03-28T09:37:13.712Z,1.00
2023-03-28T09:39:49.506Z,1.10
2023-03-28T09:42:28.800Z,0.90
2023-03-28T09:45:21.617Z,1.30
2023-03-28T09:47:48.979Z,1.00
2023-03-28T09:50:17.290Z,1.20
2023-03-28T09:52:44.940Z,1.02
2023-03-28T09:55:21.335Z,0.80
2023-03-28T09:58:07.314Z,1.20
2023-03-28T10:00:48.685Z,1.73
2023-03-28T10:03:35.068Z,0.90
2023-03-28T10:06:19.850Z,1.10
2023-03-28T10:08:46.860Z,1.25
2023-03-28T10:11:19.491Z,1.40
2023-03-28T10:13:48.167Z,1.20
2023-03-28T10:16:22.497Z,1.00
2023-03-28T10:18:49.525Z,1.20
2023-03-28T10:21:18.592Z,1.05
2023-03-28T10:23:50.315Z,1.17
2023-03-28T10:26:23.824Z,0.90
2023-03-28T10:28:55.501Z,0.85
2023-03-28T10:31:30.715Z,0.93
2023-03-28T10:34:02.855Z,1.02
2023-03-28T10:36:33.236Z,1.38
2023-03-28T10:39:01.728Z,1.10
2023-03-28T10:41:29.716Z,1.15
2023-03-28T10:43:57.354Z,1.40
2023-03-28T10:46:35.757Z,1.20
2023-03-28T10:49:06.040Z,1.23
2023-03-28T10:51:33.577Z,1.38
2023-03-28T10:54:19.099Z,1.13
2023-03-28T10:56:52.648Z,1.17
2023-03-28T10:59:57.352Z,1.00
2023-03-28T11:02:36.480Z,1.05
2023-03-28T11:05:27.997Z,0.90
2023-03-28T11:08:00.413Z,1.33
2023-03-28T11:10:30.376Z,0.82
2023-03-28T11:12:58.978Z,0.82
2023-03-28T11:15:54.130Z,0.75
2023-03-28T11:19:03.845Z,1.13
2023-03-28T11:21:52.477Z,0.80
2023-03-28T11:24:28.448Z,1.50
2023-03-28T11:27:21.313Z,1.27
2023-03-28T11:29:51.149Z,1.02
2023-03-28T11:32:18.051Z,1.20
2023-03-28T11:35:14.396Z,1.10
2023-03-28T11:37:50.348Z,1.13
2023-03-28T11:40:49.559Z,1.20
2023-03-28T11:43:37.063Z,0.93
2023-03-28T11:46:34.827Z,0.80
2023-03-28T11:49:33.910Z,0.98
2023-03-28T11:52:09.671Z,1.30
2023-03-28T11:54:45.655Z,1.10
2023-03-28T11:57:48.287Z,0.98
2023-03-28T12:00:33.163Z,1.20
2023-03-28T12:03:17.115Z,1.67
2023-03-28T12:05:49.140Z,1.20
2023-03-28T12:08:41.466Z,0.93
2023-03-28T12:11:25.844Z,0.90
2023-03-28T12:14:08.921Z,1.05
2023-03-28T12:16:42.446Z,0.95
2023-03-28T12:19:11.604Z,0.85
2023-03-28T12:21:45.104Z,1.00
2023-03-28T12:24:25.690Z,1.00
2023-03-28T12:26:56.228Z,1.05
2023-03-28T12:29:25.656Z,0.77
2023-03-28T12:32:25.920Z,1.10
2023-03-28T12:35:43.990Z,1.30
2023-03-28T12:38:32.887Z,0.90
2023-03-28T12:41:05.870Z,1.00
2023-03-28T12:43:52.154Z,0.80
2023-03-28T12:46:25.482Z,0.80
2023-03-28T12:49:14.607Z,0.85
2023-03-28T12:51:50.930Z,1.27
2023-03-28T12:54:17.841Z,1.00
2023-03-28T12:56:59.261Z,1.20
2023-03-28T12:59:48.585Z,0.80
2023-03-28T13:02:32.400Z,1.27
2023-03-28T13:05:18.569Z,0.80
2023-03-28T13:08:14.631Z,1.15
2023-03-28T13:11:05.288Z,1.10
2023-03-28T13:13:51.347Z,1.20
2023-03-28T13:16:26.765Z,0.82
2023-03-28T13:19:07.015Z,1.13
2023-03-28T13:21:55.442Z,0.90
2023-03-28T13:24:25.991Z,1.10
2023-03-28T13:27:18.978Z,0.85
2023-03-28T13:29:53.034Z,1.15
2023-03-28T13:32:24.846Z,1.00
2023-03-28T13:35:30.531Z,0.80
2023-03-28T13:38:14.317Z,1.05
2023-03-28T13:40:46.027Z,0.80
2023-03-28T13:43:22.234Z,0.95
2023-03-28T13:45:50.278Z,0.85
2023-03-28T13:48:17.518Z,1.02
2023-03-28T13:50:45.580Z,0.90
2023-03-28T13:53:14.818Z,0.88
2023-03-28T13:55:43.654Z,1.30
2023-03-28T13:58:13.936Z,1.25
2023-03-28T14:00:41.142Z,1.40
2023-03-28T14:03:15.275Z,1.02
2023-03-28T14:05:44.910Z,0.80
2023-03-28T14:08:14.903Z,0.90
2023-03-28T14:10:46.049Z,1.10
2023-03-28T14:13:21.747Z,0.80
2023-03-28T14:15:51.779Z,1.40
2023-03-28T14:18:30.912Z,0.75
2023-03-28T14:20:57.958Z,0.88
2023-03-28T14:23:31.647Z,0.80
2023-03-28T14:26:01.788Z,1.05
2023-03-28T14:28:30.098Z,1.02
2023-03-28T14:30:57.653Z,0.90
2023-03-28T14:33:25.452Z,0.98
2023-03-28T14:36:00.255Z,1.30
2023-03-28T14:38:29.257Z,1.20
2023-03-28T14:41:08.126Z,1.00
2023-03-28T14:43:36.827Z,0.80
2023-03-28T14:46:08.181Z,1.10
2023-03-28T14:48:36.966Z,0.60
2023-03-28T14:51:06.151Z,1.10
2023-03-28T14:53:40.679Z,1.00
2023-03-28T14:56:10.516Z,0.80
2023-03-28T14:58:41.925Z,0.65
2023-03-28T15:01:10.798Z,1.03
2023-03-28T15:03:43.173Z,1.20
2023-03-28T15:06:17.712Z,1.00
2023-03-28T15:08:45.743Z,1.10
2023-03-28T15:11:20.062Z,1.00
2023-03-28T15:13:51.576Z,1.15
2023-03-28T15:16:24.358Z,1.60
2023-03-28T15:18:57.928Z,1.65
2023-03-28T15:21:25.103Z,1.25
2023-03-28T15:23:57.897Z,1.27
2023-03-28T15:26:32.022Z,1.40
2023-03-28T15:28:59.278Z,1.40
2023-03-28T15:31:27.111Z,1.23
2023-03-28T15:33:54.708Z,0.93
2023-03-28T15:36:30.431Z,2.90
2023-03-28T15:39:02.938Z,1.10
2023-03-28T15:41:43.089Z,0.93
2023-03-28T15:44:27.657Z,0.90
2023-03-28T15:46:57.105Z,1.60
2023-03-28T15:49:24.352Z,1.50
2023-03-28T15:51:53.781Z,1.30
2023-03-28T15:54:30.716Z,1.35
2023-03-28T15:57:01.161Z,1.20
2023-03-28T15:59:32.901Z,0.98
2023-03-28T16:02:25.056Z,0.90
2023-03-28T16:05:04.160Z,2.10
2023-03-28T16:07:46.827Z,1.40
2023-03-28T16:10:16.318Z,1.73
2023-03-28T16:12:43.751Z,2.40
2023-03-28T16:15:11.283Z,1.63
2023-03-28T16:17:40.758Z,1.70
2023-03-28T16:20:13.747Z,1.50
2023-03-28T16:22:40.772Z,1.05
2023-03-28T16:25:08.337Z,1.20
2023-03-28T16:27:37.660Z,1.40
2023-03-28T16:30:07.882Z,1.25
2023-03-28T16:32:34.851Z,1.35
2023-03-28T16:35:01.747Z,2.15
2023-03-28T16:37:28.605Z,3.78
2023-03-28T16:39:55.543Z,3.35
2023-03-28T16:42:24.549Z,3.05
2023-03-28T16:44:51.620Z,12.73
2023-03-28T16:47:18.512Z,5.68
2023-03-28T16:49:45.662Z,3.60
2023-03-28T16:52:12.949Z,10.10
2023-03-28T16:54:39.865Z,1.98
2023-03-28T16:57:07.385Z,1.98
2023-03-28T16:59:34.628Z,1.95
2023-03-28T17:02:01.663Z,2.55
2023-03-28T17:04:29.964Z,2.47
2023-03-28T17:06:57.147Z,2.60
2023-03-28T17:09:24.040Z,2.28
2023-03-28T17:11:53.469Z,2.90
2023-03-28T17:14:20.844Z,2.55
2023-03-28T17:16:47.938Z,3.00
2023-03-28T17:19:18.227Z,2.85
2023-03-28T17:21:45.738Z,2.97
2023-03-28T17:24:13.689Z,2.60
2023-03-28T17:26:40.661Z,3.35
2023-03-28T17:29:12.260Z,2.80
2023-03-28T17:31:39.294Z,3.05
2023-03-28T17:34:06.601Z,3.80
2023-03-28T17:36:34.916Z,2.88
2023-03-28T17:39:02.664Z,3.08
2023-03-28T17:41:31.057Z,3.40
2023-03-28T17:43:58.442Z,2.72
2023-03-28T17:46:26.109Z,2.90
2023-03-28T17:48:53.931Z,2.85
2023-03-28T17:51:21.620Z,2.80
2023-03-28T17:53:48.655Z,3.08
2023-03-28T17:56:20.604Z,2.80
2023-03-28T17:58:47.456Z,2.83
2023-03-28T18:01:17.323Z,2.88
2023-03-28T18:03:45.896Z,3.25
2023-03-28T18:06:13.514Z,4.10
2023-03-28T18:08:40.642Z,4.72
2023-03-28T18:11:10.013Z,4.20
2023-03-28T18:13:38.143Z,4.97
2023-03-28T18:16:09.359Z,5.22
2023-03-28T18:18:38.859Z,5.35
2023-03-28T18:21:08.235Z,5.03
2023-03-28T18:23:35.870Z,4.85
2023-03-28T18:26:03.699Z,5.78
2023-03-28T18:28:31.006Z,6.28
2023-03-28T18:31:07.440Z,5.68
2023-03-28T18:33:34.328Z,6.07
2023-03-28T18:36:01.497Z,5.45
2023-03-28T18:38:28.622Z,6.15
2023-03-28T18:40:56.246Z,5.97
2023-03-28T18:43:23.393Z,6.60
2023-03-28T18:45:54.895Z,6.93
2023-03-28T18:48:22.832Z,7.03
2023-03-28T18:50:49.768Z,6.88
2023-03-28T18:53:16.772Z,7.63
2023-03-28T18:55:43.873Z,7.68
2023-03-28T18:58:11.494Z,8.02
2023-03-28T19:00:38.911Z,7.60
2023-03-28T19:03:09.290Z,8.13
2023-03-28T19:05:37.272Z,10.18
2023-03-28T19:08:04.404Z,10.10
2023-03-28T19:10:31.623Z,11.20
2023-03-28T19:12:58.478Z,13.20
2023-03-28T19:15:25.809Z,12.30
2023-03-28T19:17:52.842Z,12.05
2023-03-28T19:20:19.782Z,10.10
2023-03-28T19:22:46.737Z,10.05
2023-03-28T19:25:14.278Z,10.98
2023-03-28T19:27:41.874Z,10.15
2023-03-28T19:30:09.702Z,9.25
2023-03-28T19:32:36.574Z,8.02
2023-03-28T19:35:03.528Z,7.55
2023-03-28T19:37:30.416Z,7.55
2023-03-28T19:39:59.248Z,8.50
2023-03-28T19:42:26.348Z,8.10
2023-03-28T19:44:53.463Z,9.02
2023-03-28T19:47:20.256Z,9.20
2023-03-28T19:49:47.230Z,11.18
2023-03-28T19:52:14.265Z,11.65
2023-03-28T19:54:41.154Z,14.50
2023-03-28T19:57:08.504Z,15.18
2023-03-28T19:59:35.615Z,15.38
2023-03-28T20:02:02.614Z,16.00
2023-03-28T20:04:29.683Z,15.18
2023-03-28T20:06:56.630Z,12.60
2023-03-28T20:09:24.339Z,11.15
2023-03-28T20:11:51.396Z,11.65
2023-03-28T20:14:21.207Z,10.23
2023-03-28T20:16:48.703Z,8.35
2023-03-28T20:19:18.131Z,8.93
2023-03-28T20:21:45.254Z,8.23
2023-03-28T20:24:12.199Z,7.80
2023-03-28T20:26:39.973Z,7.05
2023-03-28T20:29:10.391Z,7.63
2023-03-28T20:31:37.447Z,6.28
2023-03-28T20:34:04.511Z,6.78
2023-03-28T20:36:34.552Z,6.65
2023-03-28T20:39:02.425Z,7.35
2023-03-28T20:41:30.020Z,7.75
2023-03-28T20:44:03.636Z,7.75
2023-03-28T20:46:32.579Z,8.18
2023-03-28T20:49:00.226Z,7.85
2023-03-28T20:51:29.693Z,7.72
2023-03-28T20:54:01.500Z,7.90
2023-03-28T20:56:30.281Z,8.35
2023-03-28T20:58:58.844Z,8.98
2023-03-28T21:01:28.599Z,8.13
2023-03-28T21:04:00.406Z,8.48
2023-03-28T21:06:29.401Z,7.63
2023-03-28T21:09:01.866Z,7.30
2023-03-28T21:11:31.465Z,7.78
2023-03-28T21:13:59.332Z,8.43
2023-03-28T21:16:27.266Z,8.23
2023-03-28T21:18:56.563Z,6.40
2023-03-28T21:21:23.992Z,7.50
2023-03-28T21:23:53.182Z,6.60
2023-03-28T21:26:22.849Z,7.25
2023-03-28T21:28:52.580Z,7.57
2023-03-28T21:31:28.139Z,7.47
2023-03-28T21:33:57.338Z,7.80
2023-03-28T21:36:25.304Z,7.47
2023-03-28T21:38:52.489Z,6.32
2023-03-28T21:41:19.733Z,6.53
2023-03-28T21:43:48.304Z,6.53
2023-03-28T21:46:18.340Z,6.30
2023-03-28T21:48:48.623Z,6.03
2023-03-28T21:51:17.235Z,6.25
2023-03-28T21:53:44.325Z,6.32
2023-03-28T21:56:12.874Z,6.25
2023-03-28T21:58:40.442Z,6.03
2023-03-28T22:01:07.780Z,5.43
2023-03-28T22:03:38.136Z,6.53
2023-03-28T22:06:05.764Z,6.63
2023-03-28T22:08:32.850Z,5.78
2023-03-28T22:11:02.374Z,5.80
2023-03-28T22:13:29.960Z,6.10
2023-03-28T22:16:00.100Z,5.57
2023-03-28T22:18:28.072Z,6.10
2023-03-28T22:20:55.199Z,5.85
2023-03-28T22:23:25.179Z,6.22
2023-03-28T22:25:53.346Z,5.55
2023-03-28T22:28:24.609Z,5.25
2023-03-28T22:30:55.092Z,4.45
2023-03-28T22:33:23.262Z,5.80
2023-03-28T22:35:50.154Z,5.57
2023-03-28T22:38:17.393Z,5.78
2023-03-28T22:40:44.224Z,6.82
2023-03-28T22:43:11.149Z,5.82
2023-03-28T22:45:38.029Z,6.85
2023-03-28T22:48:14.155Z,6.57
2023-03-28T22:50:44.207Z,5.47
2023-03-28T22:53:14.745Z,6.32
2023-03-28T22:55:42.031Z,6.25
2023-03-28T22:58:09.123Z,5.93
2023-03-28T23:00:36.362Z,6.55
2023-03-28T23:03:03.548Z,6.43
2023-03-28T23:05:30.601Z,6.50
2023-03-28T23:07:59.218Z,7.20
2023-03-28T23:10:26.219Z,6.70
2023-03-28T23:12:53.416Z,7.72
2023-03-28T23:15:20.312Z,7.65
2023-03-28T23:17:47.585Z,6.55
2023-03-28T23:20:19.338Z,7.55
2023-03-28T23:22:47.631Z,7.40
2023-03-28T23:25:17.021Z,7.97
2023-03-28T23:27:44.172Z,7.43
2023-03-28T23:30:13.813Z,7.63
2023-03-28T23:32:40.936Z,7.30
2023-03-28T23:35:09.931Z,6.70
2023-03-28T23:37:38.427Z,7.57
2023-03-28T23:40:10.522Z,7.22
2023-03-28T23:42:37.376Z,7.72
2023-03-28T23:45:04.599Z,7.43
2023-03-28T23:47:31.581Z,7.03
2023-03-28T23:49:58.453Z,7.13
2023-03-28T23:52:25.352Z,7.32
2023-03-28T23:54:54.540Z,7.82
2023-03-28T23:57:25.023Z,8.95
2023-03-28T23:59:52.015Z,7.50
